2Q9 weather

Dyer Airport
Dyer, Nevada, United States

Public forecast

Using degrees Fahrenheit for public forecast. Weather courtesy of forecast.io.

Closest aviation weather report (METAR) to Dyer Airport

Closest report is Eastern Sierra Regional Airport, 22.2 nm (41.1 km) SW. Retrieved 2020/08/05 15:56 UTC (41 minutes ago):

KBIH 051556Z AUTO 00000KT 10SM CLR 26/M02 A2996 RMK AO2 SLP085 T02611017

Closest aviation forecast (TAF) to Dyer Airport

Closest forecast is Eastern Sierra Regional Airport, 22.2 nm (41.1 km) SW. Retrieved 2020/08/05 12:22 UTC (4 hours ago):

TAF KBIH 051120Z 0512/0612 VRB05KT P6SM SKC FM052100 15014G22KT P6SM SKC FM060400 33006KT P6SM SKC